sensor_id;sensor_type;location;lat;lon;timestamp;pressure;altitude;pressure_sealevel;temperature;humidity
8101;BME280;4093;53.470;9.832;2023-02-21T00:02:22;101163.75;;;12.35;100.00
8101;BME280;4093;53.470;9.832;2023-02-21T00:05:07;101175.44;;;12.57;100.00
8101;BME280;4093;53.470;9.832;2023-02-21T00:07:52;101169.84;;;12.32;100.00
8101;BME280;4093;53.470;9.832;2023-02-21T00:10:37;101170.84;;;12.23;100.00
8101;BME280;4093;53.470;9.832;2023-02-21T00:13:24;101181.16;;;12.26;100.00
8101;BME280;4093;53.470;9.832;2023-02-21T00:16:14;101191.13;;;12.49;100.00
8101;BME280;4093;53.470;9.832;2023-02-21T00:18:59;101180.94;;;12.39;99.88
8101;BME280;4093;53.470;9.832;2023-02-21T00:21:44;101189.84;;;12.24;100.00
8101;BME280;4093;53.470;9.832;2023-02-21T00:24:30;101199.94;;;12.39;100.00
8101;BME280;4093;53.470;9.832;2023-02-21T00:27:15;101194.38;;;12.11;100.00
8101;BME280;4093;53.470;9.832;2023-02-21T00:30:02;101207.69;;;12.41;100.00
8101;BME280;4093;53.470;9.832;2023-02-21T00:32:48;101213.56;;;12.52;99.59
8101;BME280;4093;53.470;9.832;2023-02-21T00:35:34;101209.41;;;12.42;100.00
8101;BME280;4093;53.470;9.832;2023-02-21T00:38:19;101207.81;;;12.35;100.00
8101;BME280;4093;53.470;9.832;2023-02-21T00:41:04;101208.38;;;12.52;100.00
8101;BME280;4093;53.470;9.832;2023-02-21T00:43:50;101207.41;;;12.58;99.67
8101;BME280;4093;53.470;9.832;2023-02-21T00:46:36;101211.00;;;12.49;99.93
8101;BME280;4093;53.470;9.832;2023-02-21T00:49:21;101199.00;;;12.43;99.26
8101;BME280;4093;53.470;9.832;2023-02-21T00:52:07;101219.00;;;12.37;99.34
8101;BME280;4093;53.470;9.832;2023-02-21T00:54:52;101210.16;;;12.48;100.00
8101;BME280;4093;53.470;9.832;2023-02-21T00:57:37;101218.69;;;12.55;100.00
8101;BME280;4093;53.470;9.832;2023-02-21T01:00:23;101214.19;;;12.65;99.11
8101;BME280;4093;53.470;9.832;2023-02-21T01:03:10;101218.44;;;12.69;98.86
8101;BME280;4093;53.470;9.832;2023-02-21T01:05:55;101209.53;;;12.34;99.94
8101;BME280;4093;53.470;9.832;2023-02-21T01:08:41;101204.06;;;12.51;99.41
8101;BME280;4093;53.470;9.832;2023-02-21T01:11:27;101209.97;;;12.10;100.00
8101;BME280;4093;53.470;9.832;2023-02-21T01:14:12;101214.88;;;12.26;100.00
8101;BME280;4093;53.470;9.832;2023-02-21T01:16:58;101210.69;;;12.19;100.00
8101;BME280;4093;53.470;9.832;2023-02-21T01:19:44;101213.13;;;12.27;100.00
8101;BME280;4093;53.470;9.832;2023-02-21T01:22:29;101203.91;;;12.11;100.00
8101;BME280;4093;53.470;9.832;2023-02-21T01:25:15;101209.63;;;12.30;100.00
8101;BME280;4093;53.470;9.832;2023-02-21T01:28:00;101200.75;;;11.92;100.00
8101;BME280;4093;53.470;9.832;2023-02-21T01:30:45;101206.16;;;12.31;100.00
8101;BME280;4093;53.470;9.832;2023-02-21T01:33:34;101200.09;;;12.32;100.00
8101;BME280;4093;53.470;9.832;2023-02-21T01:36:21;101218.19;;;12.35;100.00
8101;BME280;4093;53.470;9.832;2023-02-21T01:39:06;101215.47;;;12.42;99.20
8101;BME280;4093;53.470;9.832;2023-02-21T01:41:52;101206.25;;;12.24;99.49
8101;BME280;4093;53.470;9.832;2023-02-21T01:44:39;101212.66;;;12.02;100.00
8101;BME280;4093;53.470;9.832;2023-02-21T01:47:25;101212.56;;;12.08;100.00
8101;BME280;4093;53.470;9.832;2023-02-21T01:50:16;101208.53;;;11.90;100.00
8101;BME280;4093;53.470;9.832;2023-02-21T01:53:06;101209.19;;;12.04;100.00
8101;BME280;4093;53.470;9.832;2023-02-21T01:55:53;101194.81;;;11.85;100.00
8101;BME280;4093;53.470;9.832;2023-02-21T01:58:40;101212.66;;;12.02;100.00
8101;BME280;4093;53.470;9.832;2023-02-21T02:01:44;101220.00;;;12.30;100.00
8101;BME280;4093;53.470;9.832;2023-02-21T02:04:31;101221.53;;;12.41;100.00
8101;BME280;4093;53.470;9.832;2023-02-21T02:07:17;101202.41;;;11.96;100.00
8101;BME280;4093;53.470;9.832;2023-02-21T02:10:05;101187.00;;;11.87;100.00
8101;BME280;4093;53.470;9.832;2023-02-21T02:13:08;101215.72;;;12.29;100.00
8101;BME280;4093;53.470;9.832;2023-02-21T02:15:48;101215.16;;;12.10;100.00
8101;BME280;4093;53.470;9.832;2023-02-21T02:18:45;101212.72;;;11.99;100.00
8101;BME280;4093;53.470;9.832;2023-02-21T02:24:57;101222.44;;;12.37;99.45
8101;BME280;4093;53.470;9.832;2023-02-21T02:27:48;101227.53;;;12.43;98.61
8101;BME280;4093;53.470;9.832;2023-02-21T02:36:52;101232.28;;;12.18;100.00
8101;BME280;4093;53.470;9.832;2023-02-21T02:39:28;101228.41;;;11.90;100.00
8101;BME280;4093;53.470;9.832;2023-02-21T02:42:03;101235.94;;;12.07;100.00
8101;BME280;4093;53.470;9.832;2023-02-21T02:44:38;101236.00;;;12.03;100.00
8101;BME280;4093;53.470;9.832;2023-02-21T02:47:11;101232.94;;;12.31;99.38
8101;BME280;4093;53.470;9.832;2023-02-21T02:49:42;101232.47;;;12.08;100.00
8101;BME280;4093;53.470;9.832;2023-02-21T02:52:12;101234.97;;;12.12;100.00
8101;BME280;4093;53.470;9.832;2023-02-21T02:54:40;101222.38;;;11.89;100.00
8101;BME280;4093;53.470;9.832;2023-02-21T02:57:11;101226.31;;;12.13;100.00
8101;BME280;4093;53.470;9.832;2023-02-21T02:59:42;101233.97;;;12.21;100.00
8101;BME280;4093;53.470;9.832;2023-02-21T03:02:24;101225.63;;;12.03;99.87
8101;BME280;4093;53.470;9.832;2023-02-21T03:05:14;101233.66;;;11.84;100.00
8101;BME280;4093;53.470;9.832;2023-02-21T03:07:54;101228.13;;;12.10;100.00
8101;BME280;4093;53.470;9.832;2023-02-21T03:10:36;101229.25;;;11.92;100.00
8101;BME280;4093;53.470;9.832;2023-02-21T03:13:10;101229.38;;;12.37;99.06
8101;BME280;4093;53.470;9.832;2023-02-21T03:15:44;101228.78;;;12.21;98.77
8101;BME280;4093;53.470;9.832;2023-02-21T03:18:18;101231.22;;;12.32;99.23
8101;BME280;4093;53.470;9.832;2023-02-21T03:20:51;101239.91;;;12.27;98.81
8101;BME280;4093;53.470;9.832;2023-02-21T03:23:23;101235.06;;;12.08;99.49
8101;BME280;4093;53.470;9.832;2023-02-21T03:25:53;101235.91;;;12.08;99.98
8101;BME280;4093;53.470;9.832;2023-02-21T03:28:23;101231.56;;;12.10;98.28
8101;BME280;4093;53.470;9.832;2023-02-21T03:30:52;101231.88;;;11.89;100.00
8101;BME280;4093;53.470;9.832;2023-02-21T03:33:22;101238.53;;;12.05;100.00
8101;BME280;4093;53.470;9.832;2023-02-21T03:35:51;101228.22;;;12.02;99.43
8101;BME280;4093;53.470;9.832;2023-02-21T03:38:19;101218.03;;;11.90;99.58
8101;BME280;4093;53.470;9.832;2023-02-21T03:40:48;101241.97;;;12.07;99.52
8101;BME280;4093;53.470;9.832;2023-02-21T03:43:16;101237.88;;;11.92;99.47
8101;BME280;4093;53.470;9.832;2023-02-21T03:45:44;101243.53;;;12.17;98.25
8101;BME280;4093;53.470;9.832;2023-02-21T03:48:12;101242.13;;;11.98;99.45
8101;BME280;4093;53.470;9.832;2023-02-21T03:50:51;101244.44;;;12.16;99.78
8101;BME280;4093;53.470;9.832;2023-02-21T03:53:19;101237.03;;;11.90;99.60
8101;BME280;4093;53.470;9.832;2023-02-21T03:55:46;101245.22;;;12.20;99.22
8101;BME280;4093;53.470;9.832;2023-02-21T03:58:15;101244.34;;;12.22;97.65
8101;BME280;4093;53.470;9.832;2023-02-21T04:00:43;101234.53;;;11.82;98.36
8101;BME280;4093;53.470;9.832;2023-02-21T04:03:11;101241.75;;;11.59;100.00
8101;BME280;4093;53.470;9.832;2023-02-21T04:05:39;101239.09;;;11.65;99.79
8101;BME280;4093;53.470;9.832;2023-02-21T04:08:06;101248.34;;;11.86;100.00
8101;BME280;4093;53.470;9.832;2023-02-21T04:10:34;101238.31;;;11.58;100.00
8101;BME280;4093;53.470;9.832;2023-02-21T04:13:18;101245.47;;;11.41;100.00
8101;BME280;4093;53.470;9.832;2023-02-21T04:15:46;101246.63;;;11.85;100.00
8101;BME280;4093;53.470;9.832;2023-02-21T04:18:14;101230.63;;;11.54;100.00
8101;BME280;4093;53.470;9.832;2023-02-21T04:20:41;101250.34;;;11.64;100.00
8101;BME280;4093;53.470;9.832;2023-02-21T04:23:09;101251.09;;;11.71;100.00
8101;BME280;4093;53.470;9.832;2023-02-21T04:25:36;101257.22;;;11.67;99.90
8101;BME280;4093;53.470;9.832;2023-02-21T04:28:04;101254.28;;;11.93;99.29
8101;BME280;4093;53.470;9.832;2023-02-21T04:30:33;101254.94;;;12.07;99.23
8101;BME280;4093;53.470;9.832;2023-02-21T04:33:01;101256.13;;;11.83;99.34
8101;BME280;4093;53.470;9.832;2023-02-21T04:35:29;101243.94;;;11.90;99.40
8101;BME280;4093;53.470;9.832;2023-02-21T04:37:57;101249.81;;;12.02;98.83
8101;BME280;4093;53.470;9.832;2023-02-21T04:40:24;101242.66;;;11.60;100.00
8101;BME280;4093;53.470;9.832;2023-02-21T04:42:52;101243.84;;;11.31;100.00
8101;BME280;4093;53.470;9.832;2023-02-21T04:45:19;101248.91;;;11.42;100.00
8101;BME280;4093;53.470;9.832;2023-02-21T04:47:48;101252.28;;;11.47;100.00
8101;BME280;4093;53.470;9.832;2023-02-21T04:50:16;101254.81;;;11.51;100.00
8101;BME280;4093;53.470;9.832;2023-02-21T04:52:46;101248.94;;;11.37;100.00
8101;BME280;4093;53.470;9.832;2023-02-21T04:55:14;101257.38;;;11.54;100.00
8101;BME280;4093;53.470;9.832;2023-02-21T04:57:42;101261.63;;;11.60;99.84
8101;BME280;4093;53.470;9.832;2023-02-21T05:00:11;101255.38;;;11.73;99.47
8101;BME280;4093;53.470;9.832;2023-02-21T05:02:41;101245.13;;;11.66;99.25
8101;BME280;4093;53.470;9.832;2023-02-21T05:05:11;101260.22;;;11.99;98.17
8101;BME280;4093;53.470;9.832;2023-02-21T05:07:40;101262.91;;;11.95;96.79
8101;BME280;4093;53.470;9.832;2023-02-21T05:10:08;101253.78;;;11.66;99.11
8101;BME280;4093;53.470;9.832;2023-02-21T05:12:36;101249.66;;;11.50;99.97
8101;BME280;4093;53.470;9.832;2023-02-21T05:15:06;101245.06;;;11.69;99.43
8101;BME280;4093;53.470;9.832;2023-02-21T05:17:34;101248.38;;;11.80;98.98
8101;BME280;4093;53.470;9.832;2023-02-21T05:20:02;101258.00;;;11.72;98.91
8101;BME280;4093;53.470;9.832;2023-02-21T05:22:31;101244.47;;;11.50;99.31
8101;BME280;4093;53.470;9.832;2023-02-21T05:24:59;101255.34;;;11.75;98.69
8101;BME280;4093;53.470;9.832;2023-02-21T05:27:27;101243.19;;;11.85;97.49
8101;BME280;4093;53.470;9.832;2023-02-21T05:29:54;101241.72;;;11.62;98.32
8101;BME280;4093;53.470;9.832;2023-02-21T05:32:22;101246.91;;;11.64;98.19
8101;BME280;4093;53.470;9.832;2023-02-21T05:34:50;101250.03;;;11.87;97.79
8101;BME280;4093;53.470;9.832;2023-02-21T05:37:18;101238.81;;;11.84;97.18
8101;BME280;4093;53.470;9.832;2023-02-21T05:39:48;101260.94;;;12.09;96.36
8101;BME280;4093;53.470;9.832;2023-02-21T05:42:16;101251.72;;;11.91;97.73
8101;BME280;4093;53.470;9.832;2023-02-21T05:44:44;101259.44;;;11.94;96.39
8101;BME280;4093;53.470;9.832;2023-02-21T05:47:12;101247.44;;;11.89;95.70
8101;BME280;4093;53.470;9.832;2023-02-21T05:49:39;101256.81;;;11.29;98.87
8101;BME280;4093;53.470;9.832;2023-02-21T05:52:10;101264.56;;;11.31;100.00
8101;BME280;4093;53.470;9.832;2023-02-21T05:54:38;101268.00;;;11.34;99.80
8101;BME280;4093;53.470;9.832;2023-02-21T05:57:09;101255.53;;;10.90;99.91
8101;BME280;4093;53.470;9.832;2023-02-21T05:59:37;101266.66;;;10.98;100.00
8101;BME280;4093;53.470;9.832;2023-02-21T06:02:04;101251.66;;;10.46;100.00
8101;BME280;4093;53.470;9.832;2023-02-21T06:04:32;101269.53;;;10.72;100.00
8101;BME280;4093;53.470;9.832;2023-02-21T06:07:00;101271.66;;;11.15;97.66
8101;BME280;4093;53.470;9.832;2023-02-21T06:09:28;101273.47;;;11.05;97.48
8101;BME280;4093;53.470;9.832;2023-02-21T06:11:56;101277.88;;;10.99;98.33
8101;BME280;4093;53.470;9.832;2023-02-21T06:14:25;101276.13;;;11.01;96.77
8101;BME280;4093;53.470;9.832;2023-02-21T06:16:53;101284.84;;;10.92;97.21
8101;BME280;4093;53.470;9.832;2023-02-21T06:19:21;101285.50;;;11.13;96.39
8101;BME280;4093;53.470;9.832;2023-02-21T06:21:48;101280.50;;;10.97;97.26
8101;BME280;4093;53.470;9.832;2023-02-21T06:24:16;101289.00;;;11.07;96.47
8101;BME280;4093;53.470;9.832;2023-02-21T06:26:43;101278.97;;;10.75;97.73
8101;BME280;4093;53.470;9.832;2023-02-21T06:29:11;101297.84;;;10.87;98.13
8101;BME280;4093;53.470;9.832;2023-02-21T06:31:40;101304.50;;;11.10;96.60
8101;BME280;4093;53.470;9.832;2023-02-21T06:34:08;101306.75;;;11.41;94.92
8101;BME280;4093;53.470;9.832;2023-02-21T06:36:36;101307.16;;;11.04;97.35
8101;BME280;4093;53.470;9.832;2023-02-21T06:39:04;101308.94;;;10.97;98.32
8101;BME280;4093;53.470;9.832;2023-02-21T06:41:33;101304.75;;;10.85;97.38
8101;BME280;4093;53.470;9.832;2023-02-21T06:44:01;101318.97;;;11.29;96.56
8101;BME280;4093;53.470;9.832;2023-02-21T06:46:29;101321.72;;;11.16;96.49
8101;BME280;4093;53.470;9.832;2023-02-21T06:48:58;101326.16;;;11.00;97.45
8101;BME280;4093;53.470;9.832;2023-02-21T06:51:25;101327.59;;;11.27;96.36
8101;BME280;4093;53.470;9.832;2023-02-21T06:53:56;101319.53;;;11.54;94.58
8101;BME280;4093;53.470;9.832;2023-02-21T06:56:24;101322.44;;;11.28;96.99
8101;BME280;4093;53.470;9.832;2023-02-21T06:58:52;101333.63;;;11.29;97.04
8101;BME280;4093;53.470;9.832;2023-02-21T07:01:20;101337.66;;;11.53;95.66
8101;BME280;4093;53.470;9.832;2023-02-21T07:03:49;101326.56;;;11.43;95.42
8101;BME280;4093;53.470;9.832;2023-02-21T07:06:18;101323.47;;;11.10;97.61
8101;BME280;4093;53.470;9.832;2023-02-21T07:08:46;101338.78;;;11.32;97.58
8101;BME280;4093;53.470;9.832;2023-02-21T07:11:14;101338.22;;;11.02;98.58
8101;BME280;4093;53.470;9.832;2023-02-21T07:13:46;101328.69;;;11.07;98.59
8101;BME280;4093;53.470;9.832;2023-02-21T07:16:13;101336.34;;;11.15;98.51
8101;BME280;4093;53.470;9.832;2023-02-21T07:18:43;101318.66;;;10.72;99.99
8101;BME280;4093;53.470;9.832;2023-02-21T07:21:11;101347.78;;;10.94;99.58
8101;BME280;4093;53.470;9.832;2023-02-21T07:23:43;101338.25;;;11.01;99.41
8101;BME280;4093;53.470;9.832;2023-02-21T07:26:11;101351.16;;;11.04;98.64
8101;BME280;4093;53.470;9.832;2023-02-21T07:28:39;101355.25;;;11.23;97.91
8101;BME280;4093;53.470;9.832;2023-02-21T07:31:07;101362.09;;;11.32;97.64
8101;BME280;4093;53.470;9.832;2023-02-21T07:33:36;101349.19;;;11.24;98.18
8101;BME280;4093;53.470;9.832;2023-02-21T07:36:04;101355.97;;;11.39;98.07
8101;BME280;4093;53.470;9.832;2023-02-21T07:38:32;101361.75;;;11.63;97.21
8101;BME280;4093;53.470;9.832;2023-02-21T07:41:02;101349.69;;;11.58;96.47
8101;BME280;4093;53.470;9.832;2023-02-21T07:43:30;101370.38;;;11.63;97.03
8101;BME280;4093;53.470;9.832;2023-02-21T07:45:58;101359.09;;;11.67;96.01
8101;BME280;4093;53.470;9.832;2023-02-21T07:48:26;101363.59;;;11.50;96.67
8101;BME280;4093;53.470;9.832;2023-02-21T07:50:53;101363.31;;;11.74;97.05
8101;BME280;4093;53.470;9.832;2023-02-21T07:53:21;101370.97;;;11.84;96.54
8101;BME280;4093;53.470;9.832;2023-02-21T07:55:49;101372.75;;;11.80;96.70
8101;BME280;4093;53.470;9.832;2023-02-21T07:58:18;101366.69;;;11.82;96.78
8101;BME280;4093;53.470;9.832;2023-02-21T08:00:46;101373.53;;;11.90;95.73
8101;BME280;4093;53.470;9.832;2023-02-21T08:03:14;101374.28;;;11.98;95.66
8101;BME280;4093;53.470;9.832;2023-02-21T08:05:42;101382.19;;;11.89;95.56
8101;BME280;4093;53.470;9.832;2023-02-21T08:08:12;101376.25;;;11.76;95.14
8101;BME280;4093;53.470;9.832;2023-02-21T08:10:40;101379.63;;;11.86;94.29
8101;BME280;4093;53.470;9.832;2023-02-21T08:13:08;101391.19;;;12.25;92.65
8101;BME280;4093;53.470;9.832;2023-02-21T08:15:37;101380.47;;;11.86;92.41
8101;BME280;4093;53.470;9.832;2023-02-21T08:18:05;101404.13;;;12.28;91.21
8101;BME280;4093;53.470;9.832;2023-02-21T08:20:32;101389.91;;;11.92;92.68
8101;BME280;4093;53.470;9.832;2023-02-21T08:23:00;101393.47;;;11.85;92.45
8101;BME280;4093;53.470;9.832;2023-02-21T08:25:28;101384.69;;;11.93;92.11
8101;BME280;4093;53.470;9.832;2023-02-21T08:27:55;101391.63;;;11.94;91.36
8101;BME280;4093;53.470;9.832;2023-02-21T08:30:24;101402.84;;;11.95;91.72
8101;BME280;4093;53.470;9.832;2023-02-21T08:32:53;101399.31;;;11.99;91.32
8101;BME280;4093;53.470;9.832;2023-02-21T08:35:21;101371.66;;;12.01;91.64
8101;BME280;4093;53.470;9.832;2023-02-21T08:37:49;101398.97;;;12.26;90.81
8101;BME280;4093;53.470;9.832;2023-02-21T08:40:18;101389.16;;;12.47;89.41
8101;BME280;4093;53.470;9.832;2023-02-21T08:42:48;101397.81;;;12.46;88.45
8101;BME280;4093;53.470;9.832;2023-02-21T08:45:18;101392.41;;;12.01;90.45
8101;BME280;4093;53.470;9.832;2023-02-21T08:47:46;101393.81;;;12.23;90.63
8101;BME280;4093;53.470;9.832;2023-02-21T08:50:16;101394.59;;;12.30;90.54
8101;BME280;4093;53.470;9.832;2023-02-21T08:52:45;101390.75;;;12.56;89.54
8101;BME280;4093;53.470;9.832;2023-02-21T08:55:13;101394.06;;;12.67;89.13
8101;BME280;4093;53.470;9.832;2023-02-21T08:57:40;101384.81;;;11.86;91.84
8101;BME280;4093;53.470;9.832;2023-02-21T09:00:10;101392.25;;;12.13;90.98
8101;BME280;4093;53.470;9.832;2023-02-21T09:02:39;101396.19;;;12.39;89.37
8101;BME280;4093;53.470;9.832;2023-02-21T09:05:08;101391.22;;;12.23;90.73
8101;BME280;4093;53.470;9.832;2023-02-21T09:07:38;101396.63;;;12.10;90.07
8101;BME280;4093;53.470;9.832;2023-02-21T09:10:07;101406.63;;;12.34;89.93
8101;BME280;4093;53.470;9.832;2023-02-21T09:12:36;101408.88;;;12.60;89.20
8101;BME280;4093;53.470;9.832;2023-02-21T09:15:04;101411.69;;;12.45;89.50
8101;BME280;4093;53.470;9.832;2023-02-21T09:17:32;101405.50;;;12.52;89.36
8101;BME280;4093;53.470;9.832;2023-02-21T09:20:00;101402.38;;;12.32;89.91
8101;BME280;4093;53.470;9.832;2023-02-21T09:22:28;101404.63;;;12.55;89.40
8101;BME280;4093;53.470;9.832;2023-02-21T09:24:58;101411.41;;;12.63;88.89
8101;BME280;4093;53.470;9.832;2023-02-21T09:27:26;101419.16;;;12.66;90.39
8101;BME280;4093;53.470;9.832;2023-02-21T09:30:04;101401.53;;;12.28;89.40
8101;BME280;4093;53.470;9.832;2023-02-21T09:32:32;101409.22;;;12.34;89.73
8101;BME280;4093;53.470;9.832;2023-02-21T09:35:00;101417.94;;;12.89;89.34
8101;BME280;4093;53.470;9.832;2023-02-21T09:37:28;101419.44;;;13.02;88.08
8101;BME280;4093;53.470;9.832;2023-02-21T09:39:59;101416.78;;;12.49;87.77
8101;BME280;4093;53.470;9.832;2023-02-21T09:42:28;101425.47;;;12.48;88.16
8101;BME280;4093;53.470;9.832;2023-02-21T09:44:57;101422.41;;;12.17;87.99
8101;BME280;4093;53.470;9.832;2023-02-21T09:47:27;101431.50;;;12.49;87.01
8101;BME280;4093;53.470;9.832;2023-02-21T09:49:59;101428.84;;;12.52;87.63
8101;BME280;4093;53.470;9.832;2023-02-21T09:52:31;101426.25;;;12.52;87.63
8101;BME280;4093;53.470;9.832;2023-02-21T09:55:03;101423.19;;;12.25;87.30
8101;BME280;4093;53.470;9.832;2023-02-21T09:57:35;101427.09;;;12.54;86.71
8101;BME280;4093;53.470;9.832;2023-02-21T10:00:15;101425.22;;;12.64;85.25
8101;BME280;4093;53.470;9.832;2023-02-21T10:02:53;101424.91;;;12.85;85.56
8101;BME280;4093;53.470;9.832;2023-02-21T10:05:32;101427.97;;;13.09;85.52
8101;BME280;4093;53.470;9.832;2023-02-21T10:08:08;101433.50;;;13.41;83.34
8101;BME280;4093;53.470;9.832;2023-02-21T10:10:44;101413.13;;;13.15;83.21
8101;BME280;4093;53.470;9.832;2023-02-21T10:13:24;101433.22;;;13.06;83.50
8101;BME280;4093;53.470;9.832;2023-02-21T10:15:59;101424.13;;;13.33;83.45
8101;BME280;4093;53.470;9.832;2023-02-21T10:18:36;101427.19;;;12.48;85.56
8101;BME280;4093;53.470;9.832;2023-02-21T10:21:11;101423.75;;;12.46;85.73
8101;BME280;4093;53.470;9.832;2023-02-21T10:23:45;101431.16;;;12.72;85.55
8101;BME280;4093;53.470;9.832;2023-02-21T10:26:17;101439.09;;;13.17;83.91
8101;BME280;4093;53.470;9.832;2023-02-21T10:28:47;101433.50;;;12.87;85.26
8101;BME280;4093;53.470;9.832;2023-02-21T10:31:19;101438.19;;;13.18;85.57
8101;BME280;4093;53.470;9.832;2023-02-21T10:33:49;101435.00;;;13.04;85.59
8101;BME280;4093;53.470;9.832;2023-02-21T10:36:19;101432.13;;;12.66;87.38
8101;BME280;4093;53.470;9.832;2023-02-21T10:38:53;101439.16;;;12.58;88.84
8101;BME280;4093;53.470;9.832;2023-02-21T10:41:27;101442.38;;;12.09;90.68
8101;BME280;4093;53.470;9.832;2023-02-21T10:43:59;101451.63;;;12.30;91.75
8101;BME280;4093;53.470;9.832;2023-02-21T10:46:32;101444.94;;;12.12;92.10
8101;BME280;4093;53.470;9.832;2023-02-21T10:49:19;101459.38;;;12.35;90.95
8101;BME280;4093;53.470;9.832;2023-02-21T10:52:02;101460.09;;;12.44;92.77
8101;BME280;4093;53.470;9.832;2023-02-21T10:54:30;101464.03;;;12.71;91.57
8101;BME280;4093;53.470;9.832;2023-02-21T10:57:03;101468.72;;;13.05;90.35
8101;BME280;4093;53.470;9.832;2023-02-21T10:59:35;101464.19;;;12.59;90.98
8101;BME280;4093;53.470;9.832;2023-02-21T11:02:25;101463.16;;;12.72;90.84
8101;BME280;4093;53.470;9.832;2023-02-21T11:04:55;101463.34;;;12.60;92.09
8101;BME280;4093;53.470;9.832;2023-02-21T11:07:33;101459.97;;;12.52;93.11
8101;BME280;4093;53.470;9.832;2023-02-21T11:10:02;101455.91;;;12.36;92.89
8101;BME280;4093;53.470;9.832;2023-02-21T11:13:00;101468.13;;;12.24;94.00
8101;BME280;4093;53.470;9.832;2023-02-21T11:15:28;101467.03;;;12.42;92.66
8101;BME280;4093;53.470;9.832;2023-02-21T11:18:09;101472.03;;;12.58;93.53
8101;BME280;4093;53.470;9.832;2023-02-21T11:20:38;101464.38;;;12.47;93.15
8101;BME280;4093;53.470;9.832;2023-02-21T11:23:18;101470.50;;;13.00;91.78
8101;BME280;4093;53.470;9.832;2023-02-21T11:25:46;101459.00;;;12.59;92.61
8101;BME280;4093;53.470;9.832;2023-02-21T11:28:21;101467.19;;;12.32;95.15
8101;BME280;4093;53.470;9.832;2023-02-21T11:31:03;101476.00;;;12.80;92.85
8101;BME280;4093;53.470;9.832;2023-02-21T11:33:35;101472.34;;;12.95;91.67
8101;BME280;4093;53.470;9.832;2023-02-21T11:36:11;101468.66;;;12.51;93.92
8101;BME280;4093;53.470;9.832;2023-02-21T11:38:41;101475.69;;;13.00;92.50
8101;BME280;4093;53.470;9.832;2023-02-21T11:41:16;101474.69;;;13.10;92.12
8101;BME280;4093;53.470;9.832;2023-02-21T11:43:47;101472.94;;;13.11;91.80
8101;BME280;4093;53.470;9.832;2023-02-21T11:46:20;101471.31;;;13.05;92.46
8101;BME280;4093;53.470;9.832;2023-02-21T11:49:00;101459.59;;;12.80;94.34
8101;BME280;4093;53.470;9.832;2023-02-21T11:54:17;101465.50;;;12.88;94.27
8101;BME280;4093;53.470;9.832;2023-02-21T11:56:50;101479.53;;;13.33;92.65
8101;BME280;4093;53.470;9.832;2023-02-21T11:59:42;101472.69;;;13.28;92.85
8101;BME280;4093;53.470;9.832;2023-02-21T12:02:37;101469.00;;;13.42;91.86
8101;BME280;4093;53.470;9.832;2023-02-21T12:05:26;101460.69;;;13.19;92.39
8101;BME280;4093;53.470;9.832;2023-02-21T12:08:10;101468.50;;;13.17;92.87
8101;BME280;4093;53.470;9.832;2023-02-21T12:10:43;101464.25;;;13.13;93.37
8101;BME280;4093;53.470;9.832;2023-02-21T12:13:19;101468.13;;;12.86;94.40
8101;BME280;4093;53.470;9.832;2023-02-21T12:15:57;101460.78;;;12.56;95.95
8101;BME280;4093;53.470;9.832;2023-02-21T12:18:38;101466.00;;;11.88;98.90
8101;BME280;4093;53.470;9.832;2023-02-21T12:21:32;101472.50;;;12.21;99.42
8101;BME280;4093;53.470;9.832;2023-02-21T12:24:12;101460.13;;;11.67;99.64
8101;BME280;4093;53.470;9.832;2023-02-21T12:26:50;101480.13;;;12.35;98.07
8101;BME280;4093;53.470;9.832;2023-02-21T12:29:33;101471.56;;;12.26;97.07
8101;BME280;4093;53.470;9.832;2023-02-21T12:32:18;101470.47;;;12.44;96.43
8101;BME280;4093;53.470;9.832;2023-02-21T12:35:03;101474.41;;;12.73;96.26
8101;BME280;4093;53.470;9.832;2023-02-21T12:37:45;101473.31;;;12.24;97.22
8101;BME280;4093;53.470;9.832;2023-02-21T12:40:35;101483.09;;;12.69;97.13
8101;BME280;4093;53.470;9.832;2023-02-21T12:43:27;101478.28;;;13.02;95.00
8101;BME280;4093;53.470;9.832;2023-02-21T12:46:02;101482.59;;;13.04;95.17
8101;BME280;4093;53.470;9.832;2023-02-21T12:48:41;101481.34;;;12.72;95.97
8101;BME280;4093;53.470;9.832;2023-02-21T12:51:13;101479.47;;;12.81;96.28
8101;BME280;4093;53.470;9.832;2023-02-21T12:53:48;101472.97;;;12.52;97.68
8101;BME280;4093;53.470;9.832;2023-02-21T12:56:21;101459.34;;;12.36;96.22
8101;BME280;4093;53.470;9.832;2023-02-21T12:58:53;101478.31;;;12.41;97.86
8101;BME280;4093;53.470;9.832;2023-02-21T13:01:25;101478.81;;;11.98;99.28
8101;BME280;4093;53.470;9.832;2023-02-21T13:04:05;101490.09;;;12.64;97.73
8101;BME280;4093;53.470;9.832;2023-02-21T13:06:37;101477.69;;;12.21;97.00
8101;BME280;4093;53.470;9.832;2023-02-21T13:09:16;101487.59;;;12.58;97.55
8101;BME280;4093;53.470;9.832;2023-02-21T13:11:53;101477.47;;;12.38;97.40
8101;BME280;4093;53.470;9.832;2023-02-21T13:14:25;101476.88;;;12.17;99.57
8101;BME280;4093;53.470;9.832;2023-02-21T13:16:54;101480.53;;;12.66;97.27
8101;BME280;4093;53.470;9.832;2023-02-21T13:19:24;101477.47;;;12.38;97.46
8101;BME280;4093;53.470;9.832;2023-02-21T13:25:27;101471.75;;;12.11;96.15
8101;BME280;4093;53.470;9.832;2023-02-21T13:28:03;101472.03;;;11.87;97.79
8101;BME280;4093;53.470;9.832;2023-02-21T13:30:38;101475.34;;;12.01;98.13
8101;BME280;4093;53.470;9.832;2023-02-21T13:33:22;101473.06;;;11.67;98.37
8101;BME280;4093;53.470;9.832;2023-02-21T13:35:55;101473.78;;;11.88;98.09
8101;BME280;4093;53.470;9.832;2023-02-21T13:38:25;101472.75;;;11.99;97.20
8101;BME280;4093;53.470;9.832;2023-02-21T13:41:03;101462.56;;;11.86;97.81
8101;BME280;4093;53.470;9.832;2023-02-21T13:43:33;101468.72;;;11.71;97.35
8101;BME280;4093;53.470;9.832;2023-02-21T13:46:23;101469.44;;;11.87;97.94
8101;BME280;4093;53.470;9.832;2023-02-21T13:55:27;101461.69;;;11.80;97.34
8101;BME280;4093;53.470;9.832;2023-02-21T14:01:18;101460.75;;;11.92;97.10
8101;BME280;4093;53.470;9.832;2023-02-21T14:03:48;101466.00;;;11.86;97.04
8101;BME280;4093;53.470;9.832;2023-02-21T14:06:34;101461.88;;;11.62;98.19
8101;BME280;4093;53.470;9.832;2023-02-21T14:09:09;101470.28;;;11.89;96.82
8101;BME280;4093;53.470;9.832;2023-02-21T14:11:46;101470.44;;;11.70;96.40